sensor_id;sensor_type;location;lat;lon;timestamp;P1;durP1;ratioP1;P2;durP2;ratioP2
4652;SDS011;9900;48.738;9.306;2023-07-29T00:00:01;3.50;;;3.20;;
4652;SDS011;9900;48.738;9.306;2023-07-29T00:02:31;4.20;;;3.50;;
4652;SDS011;9900;48.738;9.306;2023-07-29T00:05:00;4.40;;;3.30;;
4652;SDS011;9900;48.738;9.306;2023-07-29T00:07:28;7.47;;;3.57;;
4652;SDS011;9900;48.738;9.306;2023-07-29T00:09:57;5.40;;;3.30;;
4652;SDS011;9900;48.738;9.306;2023-07-29T00:12:28;4.20;;;3.20;;
4652;SDS011;9900;48.738;9.306;2023-07-29T00:14:56;3.53;;;3.10;;
4652;SDS011;9900;48.738;9.306;2023-07-29T00:17:25;5.63;;;4.00;;
4652;SDS011;9900;48.738;9.306;2023-07-29T00:19:54;4.90;;;3.43;;
4652;SDS011;9900;48.738;9.306;2023-07-29T00:22:23;4.83;;;3.57;;
4652;SDS011;9900;48.738;9.306;2023-07-29T00:24:52;3.13;;;2.83;;
4652;SDS011;9900;48.738;9.306;2023-07-29T00:27:22;3.30;;;3.00;;
4652;SDS011;9900;48.738;9.306;2023-07-29T00:29:52;4.50;;;2.83;;
4652;SDS011;9900;48.738;9.306;2023-07-29T00:32:21;5.37;;;3.00;;
4652;SDS011;9900;48.738;9.306;2023-07-29T00:34:49;5.77;;;3.50;;
4652;SDS011;9900;48.738;9.306;2023-07-29T00:37:18;3.30;;;2.83;;
4652;SDS011;9900;48.738;9.306;2023-07-29T00:39:47;5.40;;;3.43;;
4652;SDS011;9900;48.738;9.306;2023-07-29T00:42:16;10.67;;;9.00;;
4652;SDS011;9900;48.738;9.306;2023-07-29T00:44:44;6.27;;;2.70;;
4652;SDS011;9900;48.738;9.306;2023-07-29T00:47:15;2.73;;;2.23;;
4652;SDS011;9900;48.738;9.306;2023-07-29T00:49:44;4.63;;;2.97;;
4652;SDS011;9900;48.738;9.306;2023-07-29T00:52:13;3.77;;;2.80;;
4652;SDS011;9900;48.738;9.306;2023-07-29T00:54:42;5.50;;;2.80;;
4652;SDS011;9900;48.738;9.306;2023-07-29T00:57:10;3.23;;;2.50;;
4652;SDS011;9900;48.738;9.306;2023-07-29T00:59:40;3.90;;;2.80;;
4652;SDS011;9900;48.738;9.306;2023-07-29T01:02:09;5.17;;;3.00;;
4652;SDS011;9900;48.738;9.306;2023-07-29T01:04:40;4.33;;;2.80;;
4652;SDS011;9900;48.738;9.306;2023-07-29T01:07:11;5.50;;;3.27;;
4652;SDS011;9900;48.738;9.306;2023-07-29T01:09:43;8.53;;;2.40;;
4652;SDS011;9900;48.738;9.306;2023-07-29T01:12:18;4.00;;;2.87;;
4652;SDS011;9900;48.738;9.306;2023-07-29T01:14:51;2.63;;;2.20;;
4652;SDS011;9900;48.738;9.306;2023-07-29T01:17:25;4.63;;;2.50;;
4652;SDS011;9900;48.738;9.306;2023-07-29T01:20:01;2.53;;;2.33;;
4652;SDS011;9900;48.738;9.306;2023-07-29T01:22:32;9.13;;;2.23;;
4652;SDS011;9900;48.738;9.306;2023-07-29T01:25:04;2.53;;;2.13;;
4652;SDS011;9900;48.738;9.306;2023-07-29T01:27:33;2.40;;;2.10;;
4652;SDS011;9900;48.738;9.306;2023-07-29T01:30:03;2.17;;;1.97;;
4652;SDS011;9900;48.738;9.306;2023-07-29T01:32:36;5.17;;;2.67;;
4652;SDS011;9900;48.738;9.306;2023-07-29T01:35:10;2.40;;;2.07;;
4652;SDS011;9900;48.738;9.306;2023-07-29T01:37:44;3.13;;;2.10;;
4652;SDS011;9900;48.738;9.306;2023-07-29T01:40:16;2.33;;;2.10;;
4652;SDS011;9900;48.738;9.306;2023-07-29T01:42:46;2.90;;;2.30;;
4652;SDS011;9900;48.738;9.306;2023-07-29T01:45:15;6.13;;;2.20;;
4652;SDS011;9900;48.738;9.306;2023-07-29T01:47:44;3.47;;;2.60;;
4652;SDS011;9900;48.738;9.306;2023-07-29T01:50:13;8.60;;;2.37;;
4652;SDS011;9900;48.738;9.306;2023-07-29T01:52:42;1.80;;;1.70;;
4652;SDS011;9900;48.738;9.306;2023-07-29T01:55:10;3.10;;;2.80;;
4652;SDS011;9900;48.738;9.306;2023-07-29T01:57:41;4.20;;;2.23;;
4652;SDS011;9900;48.738;9.306;2023-07-29T02:00:12;4.00;;;2.60;;
4652;SDS011;9900;48.738;9.306;2023-07-29T02:02:41;4.27;;;2.10;;
4652;SDS011;9900;48.738;9.306;2023-07-29T02:05:09;2.20;;;2.00;;
4652;SDS011;9900;48.738;9.306;2023-07-29T02:07:38;4.87;;;2.77;;
4652;SDS011;9900;48.738;9.306;2023-07-29T02:10:07;3.80;;;2.43;;
4652;SDS011;9900;48.738;9.306;2023-07-29T02:12:36;3.80;;;2.40;;
4652;SDS011;9900;48.738;9.306;2023-07-29T02:15:07;3.20;;;2.77;;
4652;SDS011;9900;48.738;9.306;2023-07-29T02:17:37;8.90;;;3.10;;
4652;SDS011;9900;48.738;9.306;2023-07-29T02:20:06;3.93;;;2.70;;
4652;SDS011;9900;48.738;9.306;2023-07-29T02:22:35;2.63;;;2.43;;
4652;SDS011;9900;48.738;9.306;2023-07-29T02:25:04;4.90;;;2.80;;
4652;SDS011;9900;48.738;9.306;2023-07-29T02:27:33;4.50;;;2.80;;
4652;SDS011;9900;48.738;9.306;2023-07-29T02:30:02;2.77;;;2.40;;
4652;SDS011;9900;48.738;9.306;2023-07-29T02:32:33;4.20;;;2.83;;
4652;SDS011;9900;48.738;9.306;2023-07-29T02:35:02;3.30;;;2.50;;
4652;SDS011;9900;48.738;9.306;2023-07-29T02:37:34;3.53;;;2.63;;
4652;SDS011;9900;48.738;9.306;2023-07-29T02:40:02;3.53;;;2.30;;
4652;SDS011;9900;48.738;9.306;2023-07-29T02:42:33;2.70;;;2.40;;
4652;SDS011;9900;48.738;9.306;2023-07-29T02:45:02;3.20;;;2.43;;
4652;SDS011;9900;48.738;9.306;2023-07-29T02:47:31;2.77;;;2.53;;
4652;SDS011;9900;48.738;9.306;2023-07-29T02:50:01;4.80;;;2.20;;
4652;SDS011;9900;48.738;9.306;2023-07-29T02:52:30;6.63;;;2.00;;
4652;SDS011;9900;48.738;9.306;2023-07-29T02:54:59;2.87;;;2.13;;
4652;SDS011;9900;48.738;9.306;2023-07-29T02:57:27;2.50;;;2.23;;
4652;SDS011;9900;48.738;9.306;2023-07-29T02:59:56;4.47;;;2.10;;
4652;SDS011;9900;48.738;9.306;2023-07-29T03:02:25;8.63;;;2.33;;
4652;SDS011;9900;48.738;9.306;2023-07-29T03:04:54;4.57;;;2.40;;
4652;SDS011;9900;48.738;9.306;2023-07-29T03:07:24;2.20;;;2.00;;
4652;SDS011;9900;48.738;9.306;2023-07-29T03:09:53;2.80;;;2.40;;
4652;SDS011;9900;48.738;9.306;2023-07-29T03:12:21;2.43;;;2.23;;
4652;SDS011;9900;48.738;9.306;2023-07-29T03:14:50;3.40;;;2.27;;
4652;SDS011;9900;48.738;9.306;2023-07-29T03:17:19;7.70;;;2.70;;
4652;SDS011;9900;48.738;9.306;2023-07-29T03:19:47;3.20;;;2.70;;
4652;SDS011;9900;48.738;9.306;2023-07-29T03:22:17;4.60;;;2.60;;
4652;SDS011;9900;48.738;9.306;2023-07-29T03:24:48;4.90;;;2.40;;
4652;SDS011;9900;48.738;9.306;2023-07-29T03:27:17;4.40;;;2.77;;
4652;SDS011;9900;48.738;9.306;2023-07-29T03:29:45;7.20;;;2.93;;
4652;SDS011;9900;48.738;9.306;2023-07-29T03:32:14;3.03;;;2.20;;
4652;SDS011;9900;48.738;9.306;2023-07-29T03:34:43;3.90;;;2.30;;
4652;SDS011;9900;48.738;9.306;2023-07-29T03:37:12;2.63;;;2.33;;
4652;SDS011;9900;48.738;9.306;2023-07-29T03:39:41;4.73;;;2.30;;
4652;SDS011;9900;48.738;9.306;2023-07-29T03:42:11;5.23;;;2.20;;
4652;SDS011;9900;48.738;9.306;2023-07-29T03:44:40;4.33;;;2.60;;
4652;SDS011;9900;48.738;9.306;2023-07-29T03:47:11;3.90;;;2.27;;
4652;SDS011;9900;48.738;9.306;2023-07-29T03:49:40;3.60;;;2.30;;
4652;SDS011;9900;48.738;9.306;2023-07-29T03:52:08;2.40;;;2.20;;
4652;SDS011;9900;48.738;9.306;2023-07-29T03:54:37;2.60;;;2.40;;
4652;SDS011;9900;48.738;9.306;2023-07-29T03:57:06;3.27;;;2.00;;
4652;SDS011;9900;48.738;9.306;2023-07-29T03:59:36;7.00;;;2.60;;
4652;SDS011;9900;48.738;9.306;2023-07-29T04:02:05;4.20;;;2.70;;
4652;SDS011;9900;48.738;9.306;2023-07-29T04:04:33;5.23;;;2.57;;
4652;SDS011;9900;48.738;9.306;2023-07-29T04:07:02;3.77;;;2.57;;
4652;SDS011;9900;48.738;9.306;2023-07-29T04:09:31;2.20;;;2.00;;
4652;SDS011;9900;48.738;9.306;2023-07-29T04:12:00;2.60;;;2.40;;
4652;SDS011;9900;48.738;9.306;2023-07-29T04:14:29;5.90;;;2.80;;
4652;SDS011;9900;48.738;9.306;2023-07-29T04:16:59;3.97;;;3.10;;
4652;SDS011;9900;48.738;9.306;2023-07-29T04:19:28;2.50;;;2.30;;
4652;SDS011;9900;48.738;9.306;2023-07-29T04:21:56;2.30;;;2.10;;
4652;SDS011;9900;48.738;9.306;2023-07-29T04:24:25;3.50;;;2.67;;
4652;SDS011;9900;48.738;9.306;2023-07-29T04:26:54;4.10;;;2.97;;
4652;SDS011;9900;48.738;9.306;2023-07-29T04:29:23;12.83;;;3.70;;
4652;SDS011;9900;48.738;9.306;2023-07-29T04:31:52;3.10;;;2.80;;
4652;SDS011;9900;48.738;9.306;2023-07-29T04:34:22;4.13;;;2.87;;
4652;SDS011;9900;48.738;9.306;2023-07-29T04:36:51;5.40;;;2.37;;
4652;SDS011;9900;48.738;9.306;2023-07-29T04:39:20;3.50;;;2.40;;
4652;SDS011;9900;48.738;9.306;2023-07-29T04:41:48;4.90;;;2.50;;
4652;SDS011;9900;48.738;9.306;2023-07-29T04:44:17;7.47;;;2.83;;
4652;SDS011;9900;48.738;9.306;2023-07-29T04:46:46;4.13;;;2.17;;
4652;SDS011;9900;48.738;9.306;2023-07-29T04:49:15;7.10;;;2.67;;
4652;SDS011;9900;48.738;9.306;2023-07-29T04:51:45;3.30;;;2.20;;
4652;SDS011;9900;48.738;9.306;2023-07-29T04:54:14;4.83;;;2.67;;
4652;SDS011;9900;48.738;9.306;2023-07-29T04:56:43;3.70;;;2.60;;
4652;SDS011;9900;48.738;9.306;2023-07-29T04:59:11;4.13;;;2.50;;
4652;SDS011;9900;48.738;9.306;2023-07-29T05:01:40;3.77;;;2.60;;
4652;SDS011;9900;48.738;9.306;2023-07-29T05:04:10;3.43;;;2.40;;
4652;SDS011;9900;48.738;9.306;2023-07-29T05:06:39;5.73;;;2.43;;
4652;SDS011;9900;48.738;9.306;2023-07-29T05:09:15;4.10;;;2.70;;
4652;SDS011;9900;48.738;9.306;2023-07-29T05:11:45;7.03;;;2.70;;
4652;SDS011;9900;48.738;9.306;2023-07-29T05:14:15;2.60;;;2.40;;
4652;SDS011;9900;48.738;9.306;2023-07-29T05:16:44;4.43;;;2.50;;
4652;SDS011;9900;48.738;9.306;2023-07-29T05:19:13;5.43;;;2.93;;
4652;SDS011;9900;48.738;9.306;2023-07-29T05:21:42;4.60;;;2.50;;
4652;SDS011;9900;48.738;9.306;2023-07-29T05:24:10;4.53;;;2.90;;
4652;SDS011;9900;48.738;9.306;2023-07-29T05:26:41;3.30;;;2.63;;
4652;SDS011;9900;48.738;9.306;2023-07-29T05:29:09;5.93;;;3.20;;
4652;SDS011;9900;48.738;9.306;2023-07-29T05:31:38;7.03;;;3.53;;
4652;SDS011;9900;48.738;9.306;2023-07-29T05:34:07;3.33;;;2.53;;
4652;SDS011;9900;48.738;9.306;2023-07-29T05:36:36;8.53;;;2.97;;
4652;SDS011;9900;48.738;9.306;2023-07-29T05:39:06;7.10;;;3.50;;
4652;SDS011;9900;48.738;9.306;2023-07-29T05:41:35;4.30;;;2.70;;
4652;SDS011;9900;48.738;9.306;2023-07-29T05:44:05;2.90;;;2.63;;
4652;SDS011;9900;48.738;9.306;2023-07-29T05:46:37;6.77;;;2.73;;
4652;SDS011;9900;48.738;9.306;2023-07-29T05:49:06;10.53;;;3.30;;
4652;SDS011;9900;48.738;9.306;2023-07-29T05:51:34;10.97;;;2.80;;
4652;SDS011;9900;48.738;9.306;2023-07-29T05:54:03;4.57;;;2.67;;
4652;SDS011;9900;48.738;9.306;2023-07-29T05:56:32;5.97;;;2.50;;
4652;SDS011;9900;48.738;9.306;2023-07-29T05:59:01;7.03;;;2.40;;
4652;SDS011;9900;48.738;9.306;2023-07-29T06:01:31;2.87;;;2.43;;
4652;SDS011;9900;48.738;9.306;2023-07-29T06:04:00;5.30;;;2.73;;
4652;SDS011;9900;48.738;9.306;2023-07-29T06:06:29;5.67;;;2.70;;
4652;SDS011;9900;48.738;9.306;2023-07-29T06:08:57;3.33;;;2.53;;
4652;SDS011;9900;48.738;9.306;2023-07-29T06:11:26;3.67;;;2.70;;
4652;SDS011;9900;48.738;9.306;2023-07-29T06:13:55;8.70;;;2.90;;
4652;SDS011;9900;48.738;9.306;2023-07-29T06:16:24;7.30;;;3.40;;
4652;SDS011;9900;48.738;9.306;2023-07-29T06:18:54;6.37;;;2.83;;
4652;SDS011;9900;48.738;9.306;2023-07-29T06:21:23;9.63;;;3.40;;
4652;SDS011;9900;48.738;9.306;2023-07-29T06:23:52;3.10;;;2.37;;
4652;SDS011;9900;48.738;9.306;2023-07-29T06:26:20;5.40;;;2.80;;
4652;SDS011;9900;48.738;9.306;2023-07-29T06:28:49;3.27;;;2.60;;
4652;SDS011;9900;48.738;9.306;2023-07-29T06:31:18;7.00;;;2.57;;
4652;SDS011;9900;48.738;9.306;2023-07-29T06:33:47;5.87;;;2.80;;
4652;SDS011;9900;48.738;9.306;2023-07-29T06:36:17;3.87;;;2.27;;
4652;SDS011;9900;48.738;9.306;2023-07-29T06:38:46;6.63;;;2.50;;
4652;SDS011;9900;48.738;9.306;2023-07-29T06:41:15;4.13;;;3.20;;
4652;SDS011;9900;48.738;9.306;2023-07-29T06:43:46;7.33;;;2.60;;
4652;SDS011;9900;48.738;9.306;2023-07-29T06:46:15;2.47;;;2.23;;
4652;SDS011;9900;48.738;9.306;2023-07-29T06:48:44;4.07;;;2.53;;
4652;SDS011;9900;48.738;9.306;2023-07-29T06:51:13;5.90;;;2.80;;
4652;SDS011;9900;48.738;9.306;2023-07-29T06:53:43;3.47;;;2.63;;
4652;SDS011;9900;48.738;9.306;2023-07-29T06:56:12;3.10;;;2.80;;
4652;SDS011;9900;48.738;9.306;2023-07-29T06:58:41;6.00;;;3.30;;
4652;SDS011;9900;48.738;9.306;2023-07-29T07:01:10;2.80;;;2.60;;
4652;SDS011;9900;48.738;9.306;2023-07-29T07:03:39;5.40;;;2.87;;
4652;SDS011;9900;48.738;9.306;2023-07-29T07:06:07;2.83;;;2.53;;
4652;SDS011;9900;48.738;9.306;2023-07-29T07:08:36;4.73;;;2.60;;
4652;SDS011;9900;48.738;9.306;2023-07-29T07:11:06;5.00;;;2.40;;
4652;SDS011;9900;48.738;9.306;2023-07-29T07:13:35;4.60;;;2.47;;
4652;SDS011;9900;48.738;9.306;2023-07-29T07:16:04;4.30;;;2.47;;
4652;SDS011;9900;48.738;9.306;2023-07-29T07:18:33;3.27;;;2.03;;
4652;SDS011;9900;48.738;9.306;2023-07-29T07:21:02;5.23;;;2.57;;
4652;SDS011;9900;48.738;9.306;2023-07-29T07:23:31;8.37;;;3.90;;
4652;SDS011;9900;48.738;9.306;2023-07-29T07:26:00;3.53;;;2.50;;
4652;SDS011;9900;48.738;9.306;2023-07-29T07:28:30;4.10;;;2.37;;
4652;SDS011;9900;48.738;9.306;2023-07-29T07:30:59;13.13;;;2.50;;
4652;SDS011;9900;48.738;9.306;2023-07-29T07:33:28;3.73;;;2.23;;
4652;SDS011;9900;48.738;9.306;2023-07-29T07:35:56;5.00;;;3.03;;
4652;SDS011;9900;48.738;9.306;2023-07-29T07:38:25;5.77;;;2.50;;
4652;SDS011;9900;48.738;9.306;2023-07-29T07:40:54;4.53;;;2.20;;
4652;SDS011;9900;48.738;9.306;2023-07-29T07:43:24;3.50;;;2.13;;
4652;SDS011;9900;48.738;9.306;2023-07-29T07:45:58;2.87;;;2.20;;
4652;SDS011;9900;48.738;9.306;2023-07-29T07:48:28;3.10;;;2.20;;
4652;SDS011;9900;48.738;9.306;2023-07-29T07:50:57;4.03;;;2.00;;
4652;SDS011;9900;48.738;9.306;2023-07-29T07:53:25;3.00;;;1.80;;
4652;SDS011;9900;48.738;9.306;2023-07-29T07:55:54;3.30;;;2.00;;
4652;SDS011;9900;48.738;9.306;2023-07-29T07:58:23;4.73;;;2.50;;
4652;SDS011;9900;48.738;9.306;2023-07-29T08:00:52;3.13;;;1.87;;
4652;SDS011;9900;48.738;9.306;2023-07-29T08:03:22;2.50;;;1.87;;
4652;SDS011;9900;48.738;9.306;2023-07-29T08:05:51;2.53;;;1.50;;
4652;SDS011;9900;48.738;9.306;2023-07-29T08:08:20;3.23;;;1.83;;
4652;SDS011;9900;48.738;9.306;2023-07-29T08:10:48;2.10;;;1.80;;
4652;SDS011;9900;48.738;9.306;2023-07-29T08:13:17;3.00;;;1.53;;
4652;SDS011;9900;48.738;9.306;2023-07-29T08:15:47;7.60;;;1.30;;
4652;SDS011;9900;48.738;9.306;2023-07-29T08:18:16;2.97;;;1.80;;
4652;SDS011;9900;48.738;9.306;2023-07-29T08:20:53;4.27;;;1.60;;
4652;SDS011;9900;48.738;9.306;2023-07-29T08:23:25;2.43;;;1.80;;
4652;SDS011;9900;48.738;9.306;2023-07-29T08:25:54;3.73;;;1.50;;
4652;SDS011;9900;48.738;9.306;2023-07-29T08:28:28;2.90;;;1.73;;
4652;SDS011;9900;48.738;9.306;2023-07-29T08:30:58;1.77;;;1.67;;
4652;SDS011;9900;48.738;9.306;2023-07-29T08:33:27;2.60;;;1.73;;
4652;SDS011;9900;48.738;9.306;2023-07-29T08:35:58;5.30;;;2.70;;
4652;SDS011;9900;48.738;9.306;2023-07-29T08:38:26;3.47;;;1.90;;
4652;SDS011;9900;48.738;9.306;2023-07-29T08:40:58;2.37;;;1.80;;
4652;SDS011;9900;48.738;9.306;2023-07-29T08:43:30;4.90;;;2.20;;
4652;SDS011;9900;48.738;9.306;2023-07-29T08:46:00;2.43;;;2.23;;
4652;SDS011;9900;48.738;9.306;2023-07-29T08:48:32;2.30;;;2.10;;
4652;SDS011;9900;48.738;9.306;2023-07-29T08:51:04;3.27;;;2.17;;
4652;SDS011;9900;48.738;9.306;2023-07-29T08:53:33;2.77;;;2.10;;
4652;SDS011;9900;48.738;9.306;2023-07-29T08:56:03;2.40;;;1.80;;
4652;SDS011;9900;48.738;9.306;2023-07-29T08:58:32;6.23;;;1.80;;
4652;SDS011;9900;48.738;9.306;2023-07-29T09:01:01;2.53;;;1.80;;
4652;SDS011;9900;48.738;9.306;2023-07-29T09:03:30;2.70;;;1.80;;
4652;SDS011;9900;48.738;9.306;2023-07-29T09:05:59;3.47;;;2.03;;
4652;SDS011;9900;48.738;9.306;2023-07-29T09:08:29;2.37;;;2.17;;
4652;SDS011;9900;48.738;9.306;2023-07-29T09:10:58;3.23;;;1.70;;
4652;SDS011;9900;48.738;9.306;2023-07-29T09:13:27;2.80;;;1.90;;
4652;SDS011;9900;48.738;9.306;2023-07-29T09:15:57;3.03;;;1.97;;
4652;SDS011;9900;48.738;9.306;2023-07-29T09:18:26;2.80;;;1.40;;
4652;SDS011;9900;48.738;9.306;2023-07-29T09:20:55;1.77;;;1.50;;
4652;SDS011;9900;48.738;9.306;2023-07-29T09:23:27;3.30;;;1.80;;
4652;SDS011;9900;48.738;9.306;2023-07-29T09:26:03;3.07;;;1.90;;
4652;SDS011;9900;48.738;9.306;2023-07-29T09:28:33;3.20;;;1.70;;
4652;SDS011;9900;48.738;9.306;2023-07-29T09:31:03;2.80;;;1.83;;
4652;SDS011;9900;48.738;9.306;2023-07-29T09:33:33;1.83;;;1.50;;
4652;SDS011;9900;48.738;9.306;2023-07-29T09:36:08;3.83;;;1.97;;
4652;SDS011;9900;48.738;9.306;2023-07-29T09:38:37;5.67;;;1.70;;
4652;SDS011;9900;48.738;9.306;2023-07-29T09:41:09;1.73;;;1.63;;
4652;SDS011;9900;48.738;9.306;2023-07-29T09:43:40;2.13;;;1.83;;
4652;SDS011;9900;48.738;9.306;2023-07-29T09:46:09;2.07;;;1.73;;
4652;SDS011;9900;48.738;9.306;2023-07-29T09:48:38;1.63;;;1.50;;
4652;SDS011;9900;48.738;9.306;2023-07-29T09:51:09;3.90;;;1.87;;
4652;SDS011;9900;48.738;9.306;2023-07-29T09:53:39;2.90;;;1.40;;
4652;SDS011;9900;48.738;9.306;2023-07-29T09:56:14;1.50;;;1.40;;
4652;SDS011;9900;48.738;9.306;2023-07-29T09:58:44;2.97;;;1.80;;
4652;SDS011;9900;48.738;9.306;2023-07-29T10:01:13;1.63;;;1.40;;
4652;SDS011;9900;48.738;9.306;2023-07-29T10:03:42;3.93;;;1.83;;
4652;SDS011;9900;48.738;9.306;2023-07-29T10:06:12;2.20;;;1.47;;
4652;SDS011;9900;48.738;9.306;2023-07-29T10:08:43;3.57;;;1.90;;
4652;SDS011;9900;48.738;9.306;2023-07-29T10:11:11;1.77;;;1.53;;
4652;SDS011;9900;48.738;9.306;2023-07-29T10:13:42;4.00;;;1.73;;
4652;SDS011;9900;48.738;9.306;2023-07-29T10:16:31;1.87;;;1.60;;
4652;SDS011;9900;48.738;9.306;2023-07-29T10:19:09;2.43;;;1.60;;
4652;SDS011;9900;48.738;9.306;2023-07-29T10:21:40;2.07;;;1.57;;
4652;SDS011;9900;48.738;9.306;2023-07-29T10:24:13;3.30;;;2.00;;
4652;SDS011;9900;48.738;9.306;2023-07-29T10:26:44;2.00;;;1.80;;
4652;SDS011;9900;48.738;9.306;2023-07-29T10:29:14;1.40;;;1.30;;
4652;SDS011;9900;48.738;9.306;2023-07-29T10:31:46;1.93;;;1.83;;
4652;SDS011;9900;48.738;9.306;2023-07-29T10:34:17;1.97;;;1.80;;
4652;SDS011;9900;48.738;9.306;2023-07-29T10:36:47;2.00;;;1.90;;
4652;SDS011;9900;48.738;9.306;2023-07-29T10:39:16;2.70;;;1.50;;
4652;SDS011;9900;48.738;9.306;2023-07-29T10:41:54;1.70;;;1.50;;
4652;SDS011;9900;48.738;9.306;2023-07-29T10:47:17;1.93;;;1.83;;
4652;SDS011;9900;48.738;9.306;2023-07-29T10:49:50;5.53;;;1.73;;
4652;SDS011;9900;48.738;9.306;2023-07-29T10:52:28;3.03;;;1.73;;
4652;SDS011;9900;48.738;9.306;2023-07-29T10:54:58;3.03;;;1.93;;
4652;SDS011;9900;48.738;9.306;2023-07-29T10:57:32;2.97;;;1.70;;
4652;SDS011;9900;48.738;9.306;2023-07-29T11:00:02;1.90;;;1.80;;
4652;SDS011;9900;48.738;9.306;2023-07-29T11:02:32;3.30;;;1.73;;
4652;SDS011;9900;48.738;9.306;2023-07-29T11:05:06;1.93;;;1.83;;
4652;SDS011;9900;48.738;9.306;2023-07-29T11:07:44;1.50;;;1.40;;
4652;SDS011;9900;48.738;9.306;2023-07-29T11:10:14;2.77;;;2.20;;
4652;SDS011;9900;48.738;9.306;2023-07-29T11:12:44;1.67;;;1.57;;
4652;SDS011;9900;48.738;9.306;2023-07-29T11:15:15;1.63;;;1.53;;
4652;SDS011;9900;48.738;9.306;2023-07-29T11:17:46;2.27;;;1.40;;
4652;SDS011;9900;48.738;9.306;2023-07-29T11:20:18;1.83;;;1.63;;
4652;SDS011;9900;48.738;9.306;2023-07-29T11:22:48;2.10;;;1.53;;
4652;SDS011;9900;48.738;9.306;2023-07-29T11:25:17;1.77;;;1.30;;
4652;SDS011;9900;48.738;9.306;2023-07-29T11:27:46;4.60;;;1.90;;
4652;SDS011;9900;48.738;9.306;2023-07-29T11:30:15;1.77;;;1.60;;
4652;SDS011;9900;48.738;9.306;2023-07-29T11:32:44;2.20;;;1.50;;
4652;SDS011;9900;48.738;9.306;2023-07-29T11:35:14;1.50;;;1.40;;
4652;SDS011;9900;48.738;9.306;2023-07-29T11:37:46;2.80;;;1.67;;
4652;SDS011;9900;48.738;9.306;2023-07-29T11:40:15;1.93;;;1.67;;
4652;SDS011;9900;48.738;9.306;2023-07-29T11:42:45;2.30;;;1.53;;
4652;SDS011;9900;48.738;9.306;2023-07-29T11:45:14;2.40;;;1.57;;
4652;SDS011;9900;48.738;9.306;2023-07-29T11:47:45;1.70;;;1.60;;
4652;SDS011;9900;48.738;9.306;2023-07-29T11:50:14;2.60;;;1.30;;
4652;SDS011;9900;48.738;9.306;2023-07-29T11:52:45;1.77;;;1.63;;
4652;SDS011;9900;48.738;9.306;2023-07-29T11:55:14;2.20;;;2.00;;
4652;SDS011;9900;48.738;9.306;2023-07-29T11:57:43;1.80;;;1.40;;
4652;SDS011;9900;48.738;9.306;2023-07-29T12:00:13;1.73;;;1.63;;
4652;SDS011;9900;48.738;9.306;2023-07-29T12:02:42;1.80;;;1.60;;
4652;SDS011;9900;48.738;9.306;2023-07-29T12:05:13;3.60;;;1.87;;
4652;SDS011;9900;48.738;9.306;2023-07-29T12:07:43;2.20;;;2.10;;
4652;SDS011;9900;48.738;9.306;2023-07-29T12:10:14;1.93;;;1.53;;
4652;SDS011;9900;48.738;9.306;2023-07-29T12:12:46;1.90;;;1.70;;
4652;SDS011;9900;48.738;9.306;2023-07-29T12:15:22;2.03;;;1.50;;
4652;SDS011;9900;48.738;9.306;2023-07-29T12:17:55;4.00;;;1.77;;
4652;SDS011;9900;48.738;9.306;2023-07-29T12:20:27;5.40;;;2.10;;
4652;SDS011;9900;48.738;9.306;2023-07-29T12:22:59;2.10;;;2.00;;
4652;SDS011;9900;48.738;9.306;2023-07-29T12:25:30;2.33;;;1.83;;
4652;SDS011;9900;48.738;9.306;2023-07-29T12:28:02;3.13;;;1.87;;
4652;SDS011;9900;48.738;9.306;2023-07-29T12:30:32;1.63;;;1.53;;
4652;SDS011;9900;48.738;9.306;2023-07-29T12:33:02;2.10;;;2.00;;
4652;SDS011;9900;48.738;9.306;2023-07-29T12:35:37;2.10;;;1.90;;
4652;SDS011;9900;48.738;9.306;2023-07-29T12:38:08;1.70;;;1.60;;
4652;SDS011;9900;48.738;9.306;2023-07-29T12:40:37;1.90;;;1.70;;
4652;SDS011;9900;48.738;9.306;2023-07-29T12:43:07;2.90;;;1.97;;
4652;SDS011;9900;48.738;9.306;2023-07-29T12:45:36;2.20;;;2.10;;
4652;SDS011;9900;48.738;9.306;2023-07-29T12:48:07;3.63;;;1.70;;
4652;SDS011;9900;48.738;9.306;2023-07-29T12:50:36;1.83;;;1.60;;
4652;SDS011;9900;48.738;9.306;2023-07-29T12:53:06;2.50;;;1.80;;
4652;SDS011;9900;48.738;9.306;2023-07-29T12:55:37;2.27;;;1.80;;
4652;SDS011;9900;48.738;9.306;2023-07-29T12:58:06;1.80;;;1.70;;
4652;SDS011;9900;48.738;9.306;2023-07-29T13:00:35;2.10;;;1.50;;
4652;SDS011;9900;48.738;9.306;2023-07-29T13:03:04;2.30;;;1.90;;
4652;SDS011;9900;48.738;9.306;2023-07-29T13:05:33;2.57;;;2.00;;
4652;SDS011;9900;48.738;9.306;2023-07-29T13:08:02;2.83;;;2.17;;
4652;SDS011;9900;48.738;9.306;2023-07-29T13:10:32;2.60;;;2.40;;
4652;SDS011;9900;48.738;9.306;2023-07-29T13:13:01;4.57;;;1.97;;
4652;SDS011;9900;48.738;9.306;2023-07-29T13:15:30;2.60;;;2.40;;
4652;SDS011;9900;48.738;9.306;2023-07-29T13:17:59;1.80;;;1.60;;
4652;SDS011;9900;48.738;9.306;2023-07-29T13:20:28;1.73;;;1.63;;
4652;SDS011;9900;48.738;9.306;2023-07-29T13:22:57;2.60;;;1.80;;
4652;SDS011;9900;48.738;9.306;2023-07-29T13:25:26;2.13;;;1.93;;
4652;SDS011;9900;48.738;9.306;2023-07-29T13:27:56;4.43;;;1.57;;
4652;SDS011;9900;48.738;9.306;2023-07-29T13:30:25;2.30;;;1.47;;
4652;SDS011;9900;48.738;9.306;2023-07-29T13:32:54;2.20;;;2.10;;
4652;SDS011;9900;48.738;9.306;2023-07-29T13:35:23;1.80;;;1.70;;
4652;SDS011;9900;48.738;9.306;2023-07-29T13:37:52;2.10;;;1.70;;
4652;SDS011;9900;48.738;9.306;2023-07-29T13:40:20;1.70;;;1.60;;
4652;SDS011;9900;48.738;9.306;2023-07-29T13:42:49;2.00;;;1.90;;
4652;SDS011;9900;48.738;9.306;2023-07-29T13:45:20;1.97;;;1.50;;
4652;SDS011;9900;48.738;9.306;2023-07-29T13:47:49;1.90;;;1.80;;
4652;SDS011;9900;48.738;9.306;2023-07-29T13:50:18;2.10;;;1.90;;
4652;SDS011;9900;48.738;9.306;2023-07-29T13:52:47;2.30;;;1.73;;
4652;SDS011;9900;48.738;9.306;2023-07-29T13:55:16;1.53;;;1.43;;
4652;SDS011;9900;48.738;9.306;2023-07-29T13:57:45;1.70;;;1.60;;
4652;SDS011;9900;48.738;9.306;2023-07-29T14:00:14;2.53;;;2.10;;
4652;SDS011;9900;48.738;9.306;2023-07-29T14:02:44;3.40;;;1.60;;
4652;SDS011;9900;48.738;9.306;2023-07-29T14:05:13;2.03;;;1.80;;
4652;SDS011;9900;48.738;9.306;2023-07-29T14:07:42;2.40;;;2.10;;
4652;SDS011;9900;48.738;9.306;2023-07-29T14:10:10;2.20;;;2.00;;
4652;SDS011;9900;48.738;9.306;2023-07-29T14:12:39;2.80;;;1.47;;
4652;SDS011;9900;48.738;9.306;2023-07-29T14:15:08;1.90;;;1.80;;
4652;SDS011;9900;48.738;9.306;2023-07-29T14:17:37;2.07;;;1.87;;
4652;SDS011;9900;48.738;9.306;2023-07-29T14:20:08;2.90;;;1.57;;
4652;SDS011;9900;48.738;9.306;2023-07-29T14:22:37;1.83;;;1.40;;
4652;SDS011;9900;48.738;9.306;2023-07-29T14:25:06;1.80;;;1.70;;
4652;SDS011;9900;48.738;9.306;2023-07-29T14:27:35;2.00;;;1.90;;
4652;SDS011;9900;48.738;9.306;2023-07-29T14:30:05;1.80;;;1.70;;
4652;SDS011;9900;48.738;9.306;2023-07-29T14:32:34;1.80;;;1.70;;
4652;SDS011;9900;48.738;9.306;2023-07-29T14:35:05;2.80;;;2.43;;
4652;SDS011;9900;48.738;9.306;2023-07-29T14:37:36;2.00;;;1.90;;
4652;SDS011;9900;48.738;9.306;2023-07-29T14:40:06;2.10;;;1.90;;
4652;SDS011;9900;48.738;9.306;2023-07-29T14:42:35;2.07;;;1.97;;
4652;SDS011;9900;48.738;9.306;2023-07-29T14:45:04;2.00;;;1.80;;
4652;SDS011;9900;48.738;9.306;2023-07-29T14:47:34;1.90;;;1.80;;
4652;SDS011;9900;48.738;9.306;2023-07-29T14:50:03;2.60;;;2.27;;
4652;SDS011;9900;48.738;9.306;2023-07-29T14:52:32;3.20;;;1.67;;
4652;SDS011;9900;48.738;9.306;2023-07-29T14:55:03;2.10;;;1.90;;
4652;SDS011;9900;48.738;9.306;2023-07-29T14:57:32;1.80;;;1.70;;
4652;SDS011;9900;48.738;9.306;2023-07-29T15:00:01;2.17;;;2.00;;
4652;SDS011;9900;48.738;9.306;2023-07-29T15:02:31;2.53;;;1.90;;
4652;SDS011;9900;48.738;9.306;2023-07-29T15:04:59;3.33;;;2.03;;
4652;SDS011;9900;48.738;9.306;2023-07-29T15:07:28;4.13;;;2.00;;
4652;SDS011;9900;48.738;9.306;2023-07-29T15:09:57;2.33;;;2.13;;
4652;SDS011;9900;48.738;9.306;2023-07-29T15:12:27;2.33;;;2.13;;
4652;SDS011;9900;48.738;9.306;2023-07-29T15:14:56;1.90;;;1.70;;
4652;SDS011;9900;48.738;9.306;2023-07-29T15:17:24;1.93;;;1.83;;
4652;SDS011;9900;48.738;9.306;2023-07-29T15:19:53;2.63;;;1.80;;
4652;SDS011;9900;48.738;9.306;2023-07-29T15:22:22;4.17;;;2.20;;
4652;SDS011;9900;48.738;9.306;2023-07-29T15:24:51;3.43;;;2.20;;
4652;SDS011;9900;48.738;9.306;2023-07-29T15:27:19;2.30;;;2.10;;
4652;SDS011;9900;48.738;9.306;2023-07-29T15:29:50;2.60;;;2.40;;
4652;SDS011;9900;48.738;9.306;2023-07-29T15:32:20;7.23;;;3.37;;